sensor_id;sensor_type;location;lat;lon;timestamp;P1;durP1;ratioP1;P2;durP2;ratioP2
72198;SDS011;60103;51.014;16.992;2022-08-19T00:01:58;15.40;;;8.20;;
72198;SDS011;60103;51.014;16.992;2022-08-19T00:04:27;13.30;;;7.60;;
72198;SDS011;60103;51.014;16.992;2022-08-19T00:06:57;14.70;;;7.30;;
72198;SDS011;60103;51.014;16.992;2022-08-19T00:09:24;14.80;;;8.10;;
72198;SDS011;60103;51.014;16.992;2022-08-19T00:11:54;13.80;;;7.60;;
72198;SDS011;60103;51.014;16.992;2022-08-19T00:14:23;14.40;;;8.20;;
72198;SDS011;60103;51.014;16.992;2022-08-19T00:16:51;14.50;;;8.10;;
72198;SDS011;60103;51.014;16.992;2022-08-19T00:19:21;17.30;;;8.50;;
72198;SDS011;60103;51.014;16.992;2022-08-19T00:21:49;12.70;;;7.10;;
72198;SDS011;60103;51.014;16.992;2022-08-19T00:24:17;14.60;;;7.70;;
72198;SDS011;60103;51.014;16.992;2022-08-19T00:26:45;13.10;;;7.40;;
72198;SDS011;60103;51.014;16.992;2022-08-19T00:29:15;16.20;;;8.40;;
72198;SDS011;60103;51.014;16.992;2022-08-19T00:31:44;12.60;;;7.40;;
72198;SDS011;60103;51.014;16.992;2022-08-19T00:34:12;14.30;;;7.50;;
72198;SDS011;60103;51.014;16.992;2022-08-19T00:36:41;13.00;;;8.10;;
72198;SDS011;60103;51.014;16.992;2022-08-19T00:39:09;12.90;;;8.00;;
72198;SDS011;60103;51.014;16.992;2022-08-19T00:41:37;13.00;;;7.60;;
72198;SDS011;60103;51.014;16.992;2022-08-19T00:44:07;14.80;;;8.30;;
72198;SDS011;60103;51.014;16.992;2022-08-19T00:46:37;13.70;;;7.80;;
72198;SDS011;60103;51.014;16.992;2022-08-19T00:49:07;13.80;;;7.80;;
72198;SDS011;60103;51.014;16.992;2022-08-19T00:51:41;13.70;;;8.50;;
72198;SDS011;60103;51.014;16.992;2022-08-19T00:54:10;12.70;;;7.40;;
72198;SDS011;60103;51.014;16.992;2022-08-19T00:56:38;15.60;;;7.90;;
72198;SDS011;60103;51.014;16.992;2022-08-19T00:59:07;14.80;;;7.90;;
72198;SDS011;60103;51.014;16.992;2022-08-19T01:01:36;14.70;;;7.70;;
72198;SDS011;60103;51.014;16.992;2022-08-19T01:04:04;14.30;;;7.80;;
72198;SDS011;60103;51.014;16.992;2022-08-19T01:06:32;13.10;;;8.20;;
72198;SDS011;60103;51.014;16.992;2022-08-19T01:09:00;17.60;;;8.60;;
72198;SDS011;60103;51.014;16.992;2022-08-19T01:11:28;14.80;;;8.00;;
72198;SDS011;60103;51.014;16.992;2022-08-19T01:13:57;13.80;;;8.10;;
72198;SDS011;60103;51.014;16.992;2022-08-19T01:16:26;13.20;;;7.60;;
72198;SDS011;60103;51.014;16.992;2022-08-19T01:18:55;14.80;;;7.90;;
72198;SDS011;60103;51.014;16.992;2022-08-19T01:21:34;15.20;;;8.20;;
72198;SDS011;60103;51.014;16.992;2022-08-19T01:24:06;15.10;;;8.60;;
72198;SDS011;60103;51.014;16.992;2022-08-19T01:26:37;14.40;;;8.40;;
72198;SDS011;60103;51.014;16.992;2022-08-19T01:29:12;16.00;;;8.20;;
72198;SDS011;60103;51.014;16.992;2022-08-19T01:31:40;14.30;;;8.10;;
72198;SDS011;60103;51.014;16.992;2022-08-19T01:34:08;15.20;;;8.00;;
72198;SDS011;60103;51.014;16.992;2022-08-19T01:39:10;15.10;;;8.40;;
72198;SDS011;60103;51.014;16.992;2022-08-19T01:41:40;15.70;;;7.80;;
72198;SDS011;60103;51.014;16.992;2022-08-19T01:44:07;13.20;;;7.70;;
72198;SDS011;60103;51.014;16.992;2022-08-19T01:46:44;13.90;;;7.90;;
72198;SDS011;60103;51.014;16.992;2022-08-19T01:49:14;12.50;;;8.10;;
72198;SDS011;60103;51.014;16.992;2022-08-19T01:51:43;14.70;;;8.00;;
72198;SDS011;60103;51.014;16.992;2022-08-19T01:54:11;13.80;;;7.60;;
72198;SDS011;60103;51.014;16.992;2022-08-19T01:56:55;12.50;;;7.60;;
72198;SDS011;60103;51.014;16.992;2022-08-19T01:59:25;12.40;;;7.10;;
72198;SDS011;60103;51.014;16.992;2022-08-19T02:01:53;13.00;;;7.80;;
72198;SDS011;60103;51.014;16.992;2022-08-19T02:04:21;15.70;;;8.40;;
72198;SDS011;60103;51.014;16.992;2022-08-19T02:06:48;13.30;;;8.10;;
72198;SDS011;60103;51.014;16.992;2022-08-19T02:09:15;13.10;;;8.20;;
72198;SDS011;60103;51.014;16.992;2022-08-19T02:11:43;15.40;;;8.30;;
72198;SDS011;60103;51.014;16.992;2022-08-19T02:14:11;13.80;;;8.00;;
72198;SDS011;60103;51.014;16.992;2022-08-19T02:16:38;13.90;;;7.40;;
72198;SDS011;60103;51.014;16.992;2022-08-19T02:19:07;15.40;;;8.00;;
72198;SDS011;60103;51.014;16.992;2022-08-19T02:21:34;14.20;;;8.40;;
72198;SDS011;60103;51.014;16.992;2022-08-19T02:24:02;15.10;;;7.90;;
72198;SDS011;60103;51.014;16.992;2022-08-19T02:26:30;15.70;;;8.80;;
72198;SDS011;60103;51.014;16.992;2022-08-19T02:28:58;14.20;;;8.00;;
72198;SDS011;60103;51.014;16.992;2022-08-19T02:31:28;13.00;;;8.50;;
72198;SDS011;60103;51.014;16.992;2022-08-19T02:33:55;15.20;;;7.60;;
72198;SDS011;60103;51.014;16.992;2022-08-19T02:36:24;14.90;;;7.90;;
72198;SDS011;60103;51.014;16.992;2022-08-19T02:38:52;12.90;;;8.40;;
72198;SDS011;60103;51.014;16.992;2022-08-19T02:41:22;14.20;;;8.50;;
72198;SDS011;60103;51.014;16.992;2022-08-19T02:43:55;15.10;;;8.10;;
72198;SDS011;60103;51.014;16.992;2022-08-19T02:46:45;14.50;;;7.90;;
72198;SDS011;60103;51.014;16.992;2022-08-19T02:49:13;13.80;;;8.30;;
72198;SDS011;60103;51.014;16.992;2022-08-19T02:51:43;14.90;;;8.80;;
72198;SDS011;60103;51.014;16.992;2022-08-19T02:54:12;14.70;;;8.70;;
72198;SDS011;60103;51.014;16.992;2022-08-19T02:56:41;15.10;;;8.30;;
72198;SDS011;60103;51.014;16.992;2022-08-19T02:59:09;15.10;;;8.80;;
72198;SDS011;60103;51.014;16.992;2022-08-19T03:01:38;14.20;;;8.20;;
72198;SDS011;60103;51.014;16.992;2022-08-19T03:04:08;15.50;;;8.60;;
72198;SDS011;60103;51.014;16.992;2022-08-19T03:06:37;14.40;;;8.00;;
72198;SDS011;60103;51.014;16.992;2022-08-19T03:09:06;16.40;;;8.60;;
72198;SDS011;60103;51.014;16.992;2022-08-19T03:11:34;13.70;;;8.60;;
72198;SDS011;60103;51.014;16.992;2022-08-19T03:14:02;14.20;;;8.40;;
72198;SDS011;60103;51.014;16.992;2022-08-19T03:16:32;15.10;;;8.50;;
72198;SDS011;60103;51.014;16.992;2022-08-19T03:19:01;14.60;;;8.80;;
72198;SDS011;60103;51.014;16.992;2022-08-19T03:21:30;15.40;;;8.80;;
72198;SDS011;60103;51.014;16.992;2022-08-19T03:24:00;13.30;;;7.60;;
72198;SDS011;60103;51.014;16.992;2022-08-19T03:26:30;15.70;;;8.50;;
72198;SDS011;60103;51.014;16.992;2022-08-19T03:28:57;16.60;;;9.40;;
72198;SDS011;60103;51.014;16.992;2022-08-19T03:31:31;16.10;;;9.20;;
72198;SDS011;60103;51.014;16.992;2022-08-19T03:34:18;15.70;;;9.00;;
72198;SDS011;60103;51.014;16.992;2022-08-19T03:36:48;16.50;;;9.40;;
72198;SDS011;60103;51.014;16.992;2022-08-19T03:39:16;15.50;;;9.50;;
72198;SDS011;60103;51.014;16.992;2022-08-19T03:41:44;16.40;;;10.10;;
72198;SDS011;60103;51.014;16.992;2022-08-19T03:44:14;18.00;;;10.30;;
72198;SDS011;60103;51.014;16.992;2022-08-19T03:46:51;16.30;;;9.80;;
72198;SDS011;60103;51.014;16.992;2022-08-19T03:49:19;16.50;;;9.30;;
72198;SDS011;60103;51.014;16.992;2022-08-19T03:51:55;15.40;;;9.40;;
72198;SDS011;60103;51.014;16.992;2022-08-19T03:54:24;18.50;;;10.00;;
72198;SDS011;60103;51.014;16.992;2022-08-19T03:56:52;17.90;;;9.80;;
72198;SDS011;60103;51.014;16.992;2022-08-19T03:59:25;18.50;;;10.10;;
72198;SDS011;60103;51.014;16.992;2022-08-19T04:01:56;18.70;;;10.40;;
72198;SDS011;60103;51.014;16.992;2022-08-19T04:04:25;20.30;;;10.60;;
72198;SDS011;60103;51.014;16.992;2022-08-19T04:06:55;17.40;;;9.80;;
72198;SDS011;60103;51.014;16.992;2022-08-19T04:09:23;14.80;;;9.20;;
72198;SDS011;60103;51.014;16.992;2022-08-19T04:11:52;20.20;;;9.20;;
72198;SDS011;60103;51.014;16.992;2022-08-19T04:14:21;17.00;;;9.50;;
72198;SDS011;60103;51.014;16.992;2022-08-19T04:16:51;17.70;;;10.00;;
72198;SDS011;60103;51.014;16.992;2022-08-19T04:19:19;15.60;;;9.50;;
72198;SDS011;60103;51.014;16.992;2022-08-19T04:21:48;17.80;;;9.60;;
72198;SDS011;60103;51.014;16.992;2022-08-19T04:24:16;17.20;;;9.80;;
72198;SDS011;60103;51.014;16.992;2022-08-19T04:26:44;17.70;;;10.30;;
72198;SDS011;60103;51.014;16.992;2022-08-19T04:29:14;20.20;;;10.80;;
72198;SDS011;60103;51.014;16.992;2022-08-19T04:31:48;17.60;;;9.80;;
72198;SDS011;60103;51.014;16.992;2022-08-19T04:34:17;18.20;;;10.10;;
72198;SDS011;60103;51.014;16.992;2022-08-19T04:36:51;17.10;;;10.60;;
72198;SDS011;60103;51.014;16.992;2022-08-19T04:39:20;17.60;;;9.90;;
72198;SDS011;60103;51.014;16.992;2022-08-19T04:42:11;16.70;;;10.60;;
72198;SDS011;60103;51.014;16.992;2022-08-19T04:44:58;19.80;;;10.80;;
72198;SDS011;60103;51.014;16.992;2022-08-19T04:47:26;18.40;;;11.10;;
72198;SDS011;60103;51.014;16.992;2022-08-19T04:50:14;20.10;;;10.70;;
72198;SDS011;60103;51.014;16.992;2022-08-19T04:52:44;18.30;;;10.80;;
72198;SDS011;60103;51.014;16.992;2022-08-19T04:55:11;18.50;;;11.50;;
72198;SDS011;60103;51.014;16.992;2022-08-19T04:57:40;19.00;;;11.30;;
72198;SDS011;60103;51.014;16.992;2022-08-19T05:00:08;17.10;;;10.30;;
72198;SDS011;60103;51.014;16.992;2022-08-19T05:02:37;20.90;;;11.50;;
72198;SDS011;60103;51.014;16.992;2022-08-19T05:05:05;17.90;;;10.20;;
72198;SDS011;60103;51.014;16.992;2022-08-19T05:07:33;20.40;;;11.30;;
72198;SDS011;60103;51.014;16.992;2022-08-19T05:10:01;19.00;;;11.20;;
72198;SDS011;60103;51.014;16.992;2022-08-19T05:12:30;19.50;;;10.90;;
72198;SDS011;60103;51.014;16.992;2022-08-19T05:14:58;18.20;;;11.00;;
72198;SDS011;60103;51.014;16.992;2022-08-19T05:17:27;19.10;;;10.80;;
72198;SDS011;60103;51.014;16.992;2022-08-19T05:20:02;17.10;;;10.80;;
72198;SDS011;60103;51.014;16.992;2022-08-19T05:22:50;18.90;;;10.10;;
72198;SDS011;60103;51.014;16.992;2022-08-19T05:25:19;18.90;;;11.00;;
72198;SDS011;60103;51.014;16.992;2022-08-19T05:27:47;16.70;;;10.60;;
72198;SDS011;60103;51.014;16.992;2022-08-19T05:30:15;19.90;;;10.00;;
72198;SDS011;60103;51.014;16.992;2022-08-19T05:32:45;17.00;;;10.40;;
72198;SDS011;60103;51.014;16.992;2022-08-19T05:35:12;17.60;;;10.60;;
72198;SDS011;60103;51.014;16.992;2022-08-19T05:37:40;18.20;;;11.20;;
72198;SDS011;60103;51.014;16.992;2022-08-19T05:40:08;18.10;;;10.20;;
72198;SDS011;60103;51.014;16.992;2022-08-19T05:42:37;14.70;;;9.70;;
72198;SDS011;60103;51.014;16.992;2022-08-19T05:45:05;17.60;;;10.90;;
72198;SDS011;60103;51.014;16.992;2022-08-19T05:47:34;18.20;;;11.00;;
72198;SDS011;60103;51.014;16.992;2022-08-19T05:50:08;17.60;;;10.90;;
72198;SDS011;60103;51.014;16.992;2022-08-19T05:52:36;19.00;;;11.80;;
72198;SDS011;60103;51.014;16.992;2022-08-19T05:55:15;19.20;;;11.30;;
72198;SDS011;60103;51.014;16.992;2022-08-19T05:57:43;20.70;;;10.40;;
72198;SDS011;60103;51.014;16.992;2022-08-19T06:00:11;18.10;;;10.70;;
72198;SDS011;60103;51.014;16.992;2022-08-19T06:02:39;20.10;;;10.80;;
72198;SDS011;60103;51.014;16.992;2022-08-19T06:05:07;20.70;;;11.80;;
72198;SDS011;60103;51.014;16.992;2022-08-19T06:07:36;19.80;;;10.80;;
72198;SDS011;60103;51.014;16.992;2022-08-19T06:10:04;17.80;;;10.90;;
72198;SDS011;60103;51.014;16.992;2022-08-19T06:12:34;18.10;;;10.50;;
72198;SDS011;60103;51.014;16.992;2022-08-19T06:15:04;17.50;;;10.40;;
72198;SDS011;60103;51.014;16.992;2022-08-19T06:17:33;16.80;;;11.00;;
72198;SDS011;60103;51.014;16.992;2022-08-19T06:20:03;16.80;;;10.90;;
72198;SDS011;60103;51.014;16.992;2022-08-19T06:22:37;19.30;;;10.50;;
72198;SDS011;60103;51.014;16.992;2022-08-19T06:25:06;18.00;;;10.80;;
72198;SDS011;60103;51.014;16.992;2022-08-19T06:27:34;18.80;;;10.50;;
72198;SDS011;60103;51.014;16.992;2022-08-19T06:30:14;17.10;;;10.30;;
72198;SDS011;60103;51.014;16.992;2022-08-19T06:32:42;15.70;;;10.00;;
72198;SDS011;60103;51.014;16.992;2022-08-19T06:35:09;16.20;;;10.50;;
72198;SDS011;60103;51.014;16.992;2022-08-19T06:37:38;15.00;;;10.50;;
72198;SDS011;60103;51.014;16.992;2022-08-19T06:40:09;20.00;;;10.50;;
72198;SDS011;60103;51.014;16.992;2022-08-19T06:42:38;19.20;;;10.00;;
72198;SDS011;60103;51.014;16.992;2022-08-19T06:45:20;17.00;;;9.60;;
72198;SDS011;60103;51.014;16.992;2022-08-19T06:48:00;18.10;;;10.30;;
72198;SDS011;60103;51.014;16.992;2022-08-19T06:50:28;15.70;;;10.10;;
72198;SDS011;60103;51.014;16.992;2022-08-19T06:52:56;16.10;;;9.70;;
72198;SDS011;60103;51.014;16.992;2022-08-19T06:55:28;19.30;;;9.80;;
72198;SDS011;60103;51.014;16.992;2022-08-19T06:58:01;15.40;;;10.00;;
72198;SDS011;60103;51.014;16.992;2022-08-19T07:00:30;16.60;;;9.80;;
72198;SDS011;60103;51.014;16.992;2022-08-19T07:02:58;16.30;;;10.20;;
72198;SDS011;60103;51.014;16.992;2022-08-19T07:05:37;17.40;;;9.20;;
72198;SDS011;60103;51.014;16.992;2022-08-19T07:08:11;14.90;;;8.80;;
72198;SDS011;60103;51.014;16.992;2022-08-19T07:10:42;16.00;;;8.70;;
72198;SDS011;60103;51.014;16.992;2022-08-19T07:13:10;15.90;;;8.90;;
72198;SDS011;60103;51.014;16.992;2022-08-19T07:15:38;15.50;;;9.00;;
72198;SDS011;60103;51.014;16.992;2022-08-19T07:18:05;16.00;;;9.00;;
72198;SDS011;60103;51.014;16.992;2022-08-19T07:20:37;17.10;;;8.60;;
72198;SDS011;60103;51.014;16.992;2022-08-19T07:23:07;15.70;;;8.50;;
72198;SDS011;60103;51.014;16.992;2022-08-19T07:25:41;15.40;;;8.80;;
72198;SDS011;60103;51.014;16.992;2022-08-19T07:28:18;13.90;;;7.20;;
72198;SDS011;60103;51.014;16.992;2022-08-19T07:30:50;13.80;;;7.60;;
72198;SDS011;60103;51.014;16.992;2022-08-19T07:33:18;18.30;;;6.90;;
72198;SDS011;60103;51.014;16.992;2022-08-19T07:35:46;11.70;;;6.30;;
72198;SDS011;60103;51.014;16.992;2022-08-19T07:38:15;13.00;;;6.30;;
72198;SDS011;60103;51.014;16.992;2022-08-19T07:40:43;15.00;;;6.70;;
72198;SDS011;60103;51.014;16.992;2022-08-19T07:43:12;17.70;;;6.60;;
72198;SDS011;60103;51.014;16.992;2022-08-19T07:45:43;13.60;;;6.30;;
72198;SDS011;60103;51.014;16.992;2022-08-19T07:48:12;13.70;;;6.50;;
72198;SDS011;60103;51.014;16.992;2022-08-19T07:50:39;15.40;;;6.90;;
72198;SDS011;60103;51.014;16.992;2022-08-19T07:53:07;14.60;;;6.70;;
72198;SDS011;60103;51.014;16.992;2022-08-19T07:55:35;11.60;;;6.80;;
72198;SDS011;60103;51.014;16.992;2022-08-19T07:58:09;13.90;;;6.80;;
72198;SDS011;60103;51.014;16.992;2022-08-19T08:00:39;11.30;;;6.40;;
72198;SDS011;60103;51.014;16.992;2022-08-19T08:03:07;13.20;;;6.40;;
72198;SDS011;60103;51.014;16.992;2022-08-19T08:05:35;12.30;;;7.10;;
72198;SDS011;60103;51.014;16.992;2022-08-19T08:08:32;13.10;;;6.60;;
72198;SDS011;60103;51.014;16.992;2022-08-19T08:11:19;14.10;;;6.90;;
72198;SDS011;60103;51.014;16.992;2022-08-19T08:13:49;12.10;;;6.50;;
72198;SDS011;60103;51.014;16.992;2022-08-19T08:16:27;11.50;;;6.30;;
72198;SDS011;60103;51.014;16.992;2022-08-19T08:19:00;12.50;;;6.10;;
72198;SDS011;60103;51.014;16.992;2022-08-19T08:21:33;12.60;;;6.40;;
72198;SDS011;60103;51.014;16.992;2022-08-19T08:24:01;12.20;;;6.00;;
72198;SDS011;60103;51.014;16.992;2022-08-19T08:26:29;11.60;;;5.90;;
72198;SDS011;60103;51.014;16.992;2022-08-19T08:28:59;13.00;;;7.30;;
72198;SDS011;60103;51.014;16.992;2022-08-19T08:31:41;12.70;;;6.60;;
72198;SDS011;60103;51.014;16.992;2022-08-19T08:34:11;12.60;;;6.90;;
72198;SDS011;60103;51.014;16.992;2022-08-19T08:36:42;10.40;;;6.00;;
72198;SDS011;60103;51.014;16.992;2022-08-19T08:39:16;11.80;;;5.60;;
72198;SDS011;60103;51.014;16.992;2022-08-19T08:41:47;10.90;;;6.20;;
72198;SDS011;60103;51.014;16.992;2022-08-19T08:47:18;11.50;;;6.50;;
72198;SDS011;60103;51.014;16.992;2022-08-19T08:49:48;11.10;;;6.30;;
72198;SDS011;60103;51.014;16.992;2022-08-19T08:52:31;11.10;;;6.10;;
72198;SDS011;60103;51.014;16.992;2022-08-19T08:55:07;10.90;;;6.30;;
72198;SDS011;60103;51.014;16.992;2022-08-19T08:57:40;11.70;;;6.10;;
72198;SDS011;60103;51.014;16.992;2022-08-19T09:00:32;10.80;;;6.40;;
72198;SDS011;60103;51.014;16.992;2022-08-19T09:03:01;12.90;;;6.00;;
72198;SDS011;60103;51.014;16.992;2022-08-19T09:05:33;11.70;;;5.70;;
72198;SDS011;60103;51.014;16.992;2022-08-19T09:17:03;9.70;;;5.00;;
72198;SDS011;60103;51.014;16.992;2022-08-19T09:19:36;11.30;;;5.90;;
72198;SDS011;60103;51.014;16.992;2022-08-19T09:22:16;10.90;;;5.60;;
72198;SDS011;60103;51.014;16.992;2022-08-19T09:24:51;13.90;;;5.60;;
72198;SDS011;60103;51.014;16.992;2022-08-19T09:27:20;16.40;;;5.60;;
72198;SDS011;60103;51.014;16.992;2022-08-19T09:30:10;14.80;;;5.70;;
72198;SDS011;60103;51.014;16.992;2022-08-19T09:32:41;11.60;;;5.40;;
72198;SDS011;60103;51.014;16.992;2022-08-19T09:35:10;11.30;;;5.80;;
72198;SDS011;60103;51.014;16.992;2022-08-19T09:37:39;14.00;;;5.90;;
72198;SDS011;60103;51.014;16.992;2022-08-19T09:40:09;15.30;;;5.20;;
72198;SDS011;60103;51.014;16.992;2022-08-19T09:42:38;13.20;;;5.80;;
72198;SDS011;60103;51.014;16.992;2022-08-19T09:45:19;11.20;;;5.30;;
72198;SDS011;60103;51.014;16.992;2022-08-19T09:47:49;11.70;;;5.40;;
72198;SDS011;60103;51.014;16.992;2022-08-19T09:50:20;10.70;;;5.20;;
72198;SDS011;60103;51.014;16.992;2022-08-19T09:52:48;12.10;;;5.60;;
72198;SDS011;60103;51.014;16.992;2022-08-19T09:55:23;14.40;;;6.00;;
72198;SDS011;60103;51.014;16.992;2022-08-19T09:57:59;15.20;;;5.20;;
72198;SDS011;60103;51.014;16.992;2022-08-19T10:00:27;11.00;;;5.00;;
72198;SDS011;60103;51.014;16.992;2022-08-19T10:02:55;12.60;;;5.30;;
72198;SDS011;60103;51.014;16.992;2022-08-19T10:05:23;12.70;;;5.50;;
72198;SDS011;60103;51.014;16.992;2022-08-19T10:08:09;12.10;;;5.40;;
72198;SDS011;60103;51.014;16.992;2022-08-19T10:10:40;12.40;;;5.40;;
72198;SDS011;60103;51.014;16.992;2022-08-19T10:13:13;10.60;;;5.30;;
72198;SDS011;60103;51.014;16.992;2022-08-19T10:15:43;9.90;;;5.70;;
72198;SDS011;60103;51.014;16.992;2022-08-19T10:18:14;9.70;;;5.50;;
72198;SDS011;60103;51.014;16.992;2022-08-19T10:20:48;12.10;;;5.30;;
72198;SDS011;60103;51.014;16.992;2022-08-19T10:23:19;11.20;;;5.80;;
72198;SDS011;60103;51.014;16.992;2022-08-19T10:25:48;11.00;;;5.20;;
72198;SDS011;60103;51.014;16.992;2022-08-19T10:28:16;9.40;;;5.20;;
72198;SDS011;60103;51.014;16.992;2022-08-19T10:30:45;11.40;;;5.50;;
72198;SDS011;60103;51.014;16.992;2022-08-19T10:33:14;12.10;;;5.40;;
72198;SDS011;60103;51.014;16.992;2022-08-19T10:36:03;9.50;;;5.00;;
72198;SDS011;60103;51.014;16.992;2022-08-19T10:38:36;10.50;;;5.00;;
72198;SDS011;60103;51.014;16.992;2022-08-19T10:41:18;9.30;;;5.00;;
72198;SDS011;60103;51.014;16.992;2022-08-19T10:43:50;9.40;;;4.50;;
72198;SDS011;60103;51.014;16.992;2022-08-19T10:46:22;8.90;;;4.70;;
72198;SDS011;60103;51.014;16.992;2022-08-19T10:48:50;9.40;;;4.90;;
72198;SDS011;60103;51.014;16.992;2022-08-19T10:51:19;11.00;;;5.10;;
72198;SDS011;60103;51.014;16.992;2022-08-19T10:54:27;8.80;;;4.90;;
72198;SDS011;60103;51.014;16.992;2022-08-19T10:57:15;10.70;;;4.70;;
72198;SDS011;60103;51.014;16.992;2022-08-19T10:59:42;9.80;;;4.40;;
72198;SDS011;60103;51.014;16.992;2022-08-19T11:02:11;10.10;;;4.00;;
72198;SDS011;60103;51.014;16.992;2022-08-19T11:04:39;11.00;;;3.60;;
72198;SDS011;60103;51.014;16.992;2022-08-19T11:07:07;8.10;;;3.50;;
72198;SDS011;60103;51.014;16.992;2022-08-19T11:09:37;7.80;;;3.30;;
72198;SDS011;60103;51.014;16.992;2022-08-19T11:12:07;8.20;;;3.60;;
72198;SDS011;60103;51.014;16.992;2022-08-19T11:14:36;8.00;;;3.40;;
72198;SDS011;60103;51.014;16.992;2022-08-19T11:17:05;9.10;;;3.40;;
72198;SDS011;60103;51.014;16.992;2022-08-19T11:19:33;9.30;;;4.00;;
72198;SDS011;60103;51.014;16.992;2022-08-19T11:22:02;8.40;;;3.00;;
72198;SDS011;60103;51.014;16.992;2022-08-19T11:24:30;9.80;;;3.50;;
72198;SDS011;60103;51.014;16.992;2022-08-19T11:27:04;8.40;;;3.30;;
72198;SDS011;60103;51.014;16.992;2022-08-19T11:29:37;9.00;;;3.40;;
72198;SDS011;60103;51.014;16.992;2022-08-19T11:32:07;9.50;;;3.50;;
72198;SDS011;60103;51.014;16.992;2022-08-19T11:34:36;7.50;;;2.80;;
72198;SDS011;60103;51.014;16.992;2022-08-19T11:37:04;7.80;;;2.70;;
72198;SDS011;60103;51.014;16.992;2022-08-19T11:39:33;7.50;;;3.20;;
72198;SDS011;60103;51.014;16.992;2022-08-19T11:42:03;8.70;;;3.40;;
72198;SDS011;60103;51.014;16.992;2022-08-19T11:44:51;6.10;;;2.30;;
72198;SDS011;60103;51.014;16.992;2022-08-19T11:47:18;8.50;;;2.70;;
72198;SDS011;60103;51.014;16.992;2022-08-19T11:49:46;7.30;;;2.40;;
72198;SDS011;60103;51.014;16.992;2022-08-19T11:52:14;10.90;;;3.10;;
72198;SDS011;60103;51.014;16.992;2022-08-19T11:54:42;9.40;;;2.90;;
72198;SDS011;60103;51.014;16.992;2022-08-19T11:57:09;8.20;;;3.10;;
72198;SDS011;60103;51.014;16.992;2022-08-19T11:59:36;8.00;;;3.00;;
72198;SDS011;60103;51.014;16.992;2022-08-19T12:02:04;9.30;;;3.40;;
72198;SDS011;60103;51.014;16.992;2022-08-19T12:04:31;11.20;;;3.70;;
72198;SDS011;60103;51.014;16.992;2022-08-19T12:06:59;9.10;;;3.10;;
72198;SDS011;60103;51.014;16.992;2022-08-19T12:09:26;8.30;;;3.30;;
72198;SDS011;60103;51.014;16.992;2022-08-19T12:11:56;10.70;;;4.00;;
72198;SDS011;60103;51.014;16.992;2022-08-19T12:14:23;8.20;;;3.30;;
72198;SDS011;60103;51.014;16.992;2022-08-19T12:16:51;9.30;;;3.40;;
72198;SDS011;60103;51.014;16.992;2022-08-19T12:19:20;9.30;;;3.40;;
72198;SDS011;60103;51.014;16.992;2022-08-19T12:21:48;8.40;;;3.10;;
72198;SDS011;60103;51.014;16.992;2022-08-19T12:24:16;9.60;;;3.20;;
72198;SDS011;60103;51.014;16.992;2022-08-19T12:26:50;8.40;;;3.40;;
72198;SDS011;60103;51.014;16.992;2022-08-19T12:29:19;7.90;;;3.30;;
72198;SDS011;60103;51.014;16.992;2022-08-19T12:31:49;9.70;;;4.00;;
72198;SDS011;60103;51.014;16.992;2022-08-19T12:34:17;8.20;;;3.60;;
72198;SDS011;60103;51.014;16.992;2022-08-19T12:36:46;8.80;;;3.40;;
72198;SDS011;60103;51.014;16.992;2022-08-19T12:39:16;8.00;;;3.20;;
72198;SDS011;60103;51.014;16.992;2022-08-19T12:41:43;10.40;;;2.80;;
72198;SDS011;60103;51.014;16.992;2022-08-19T12:44:20;7.80;;;3.10;;
72198;SDS011;60103;51.014;16.992;2022-08-19T12:46:55;9.30;;;3.20;;
72198;SDS011;60103;51.014;16.992;2022-08-19T12:49:23;9.50;;;3.40;;
72198;SDS011;60103;51.014;16.992;2022-08-19T12:52:12;8.70;;;3.40;;
72198;SDS011;60103;51.014;16.992;2022-08-19T12:54:49;8.70;;;3.00;;
72198;SDS011;60103;51.014;16.992;2022-08-19T12:57:20;11.70;;;3.00;;
72198;SDS011;60103;51.014;16.992;2022-08-19T13:02:37;9.80;;;3.20;;
72198;SDS011;60103;51.014;16.992;2022-08-19T13:05:06;9.50;;;3.50;;
72198;SDS011;60103;51.014;16.992;2022-08-19T13:07:35;8.30;;;3.60;;
72198;SDS011;60103;51.014;16.992;2022-08-19T13:10:06;9.30;;;3.30;;
72198;SDS011;60103;51.014;16.992;2022-08-19T13:12:35;8.90;;;3.40;;
72198;SDS011;60103;51.014;16.992;2022-08-19T13:15:03;8.60;;;3.40;;
72198;SDS011;60103;51.014;16.992;2022-08-19T13:17:36;8.50;;;3.30;;
72198;SDS011;60103;51.014;16.992;2022-08-19T13:20:06;10.20;;;3.30;;
72198;SDS011;60103;51.014;16.992;2022-08-19T13:22:35;9.50;;;3.00;;
72198;SDS011;60103;51.014;16.992;2022-08-19T13:25:04;10.40;;;3.40;;
72198;SDS011;60103;51.014;16.992;2022-08-19T13:27:33;11.30;;;3.10;;
72198;SDS011;60103;51.014;16.992;2022-08-19T13:30:02;8.60;;;3.50;;
72198;SDS011;60103;51.014;16.992;2022-08-19T13:32:50;10.20;;;4.10;;
72198;SDS011;60103;51.014;16.992;2022-08-19T13:35:38;11.90;;;3.50;;
72198;SDS011;60103;51.014;16.992;2022-08-19T13:38:06;9.30;;;3.10;;
72198;SDS011;60103;51.014;16.992;2022-08-19T13:40:38;10.60;;;3.10;;
72198;SDS011;60103;51.014;16.992;2022-08-19T13:43:06;12.40;;;2.90;;
72198;SDS011;60103;51.014;16.992;2022-08-19T13:45:53;10.50;;;3.50;;
72198;SDS011;60103;51.014;16.992;2022-08-19T13:48:23;10.00;;;3.10;;
72198;SDS011;60103;51.014;16.992;2022-08-19T13:50:53;9.90;;;3.00;;
72198;SDS011;60103;51.014;16.992;2022-08-19T13:53:21;12.00;;;2.90;;
72198;SDS011;60103;51.014;16.992;2022-08-19T13:55:49;8.70;;;3.20;;
72198;SDS011;60103;51.014;16.992;2022-08-19T13:58:17;10.60;;;3.10;;
72198;SDS011;60103;51.014;16.992;2022-08-19T14:00:45;10.60;;;2.90;;
72198;SDS011;60103;51.014;16.992;2022-08-19T14:03:14;11.10;;;2.50;;
72198;SDS011;60103;51.014;16.992;2022-08-19T14:05:42;21.40;;;2.80;;
72198;SDS011;60103;51.014;16.992;2022-08-19T14:08:10;13.80;;;3.00;;
72198;SDS011;60103;51.014;16.992;2022-08-19T14:10:40;11.80;;;2.60;;
72198;SDS011;60103;51.014;16.992;2022-08-19T14:13:09;13.90;;;2.90;;
72198;SDS011;60103;51.014;16.992;2022-08-19T14:15:39;13.50;;;2.50;;
72198;SDS011;60103;51.014;16.992;2022-08-19T14:18:07;14.20;;;2.90;;
72198;SDS011;60103;51.014;16.992;2022-08-19T14:20:35;9.50;;;2.70;;
72198;SDS011;60103;51.014;16.992;2022-08-19T14:23:03;10.30;;;2.60;;
72198;SDS011;60103;51.014;16.992;2022-08-19T14:25:32;10.00;;;2.90;;
72198;SDS011;60103;51.014;16.992;2022-08-19T14:28:00;11.50;;;2.70;;
72198;SDS011;60103;51.014;16.992;2022-08-19T14:30:32;12.70;;;3.60;;
72198;SDS011;60103;51.014;16.992;2022-08-19T14:33:02;12.90;;;2.50;;
72198;SDS011;60103;51.014;16.992;2022-08-19T14:35:30;11.90;;;3.00;;
72198;SDS011;60103;51.014;16.992;2022-08-19T14:38:02;13.10;;;2.70;;
72198;SDS011;60103;51.014;16.992;2022-08-19T14:40:31;17.10;;;3.10;;
72198;SDS011;60103;51.014;16.992;2022-08-19T14:43:00;7.50;;;3.70;;
72198;SDS011;60103;51.014;16.992;2022-08-19T14:45:32;8.60;;;3.50;;
72198;SDS011;60103;51.014;16.992;2022-08-19T14:48:02;9.40;;;3.80;;
72198;SDS011;60103;51.014;16.992;2022-08-19T14:50:44;9.70;;;3.80;;
72198;SDS011;60103;51.014;16.992;2022-08-19T14:53:11;9.20;;;3.80;;
72198;SDS011;60103;51.014;16.992;2022-08-19T14:55:42;11.90;;;3.80;;
72198;SDS011;60103;51.014;16.992;2022-08-19T14:58:11;9.80;;;4.20;;
72198;SDS011;60103;51.014;16.992;2022-08-19T15:00:56;9.30;;;3.70;;